Welcome to Sulphur Springs Municipal Airport

Strategically located between Dallas and Texarkana, Sulphur Springs Municipal Airport (KSLR) offers exceptional business and aviation services along with superior investment opportunities, abundant space for growth, and lakefront access. We’re a friendly and bustling connector to the Texas, Oklahoma, Arkansas and Louisiana region. Sulphur Springs Municipal Airport is a rapidly emerging center for business, commerce and mobility. We invite you to stop on in!

METAR: KSLR 161135Z AUTO 01003KT 10SM CLR 20/18 A2997 RMK AO2 T01960175 TSNO
holding out hand icon

Public Service Announcement

 

*****Update as of 12/13/2021*****

Construction of the Terminal Apron Expansion is substantially complete, there are some wrap-up items that will continue thru next week.

There is no access to Tiedowns on the North side of the Apron, and limited access on the rest of the apron.  Pls contact the airport office for assistance.

 

Painters will delay this week’s work due to weather.

Will continue  working on the Aprons, Taxiways, and Runway next week.

Runway and Taxiway markings will be nonstandard until the painting is complete.

 

The runway will be closed for paint removal and repainting on the following days:

Monday, December 20, 2021 from 0800 thru 1800 CST

Tuesday, December 21, 2021 from 0800 thru 1800 CST

 

 

Please check NOTAMs regularly and contact UNICOM (123.075) or the Airport office (903-885-4911) if you have questions.